Aérodrome :
LOGIN :

S'inscrire | Disclaimer

   EN    FR    IT 

 










Légende :    VFR   VFR Marginal   IFR   IFR Intensif   IFR Très Intensif
Visi : 
Plafond : 
>= 8 km
>= 3000ft
5 à 8 km
1000 à 3000 ft
1500m à 5 km
500 à 1000 ft
800 à 1500m
200 à 500 ft
< 800m
< 200 ft
Symboles :   Orages  Brouillard  Fortes neiges  Fortes précipitations  Vent > 20 kt
SIGMETs :   Divers  Orages  Givrage  Turbulence  Onde Orograph.  Cendres Volcan.






- Altitude de l'aérodrome : 364 ft
- Code IATA : FRA


EDDF - Frankfurt Int.

DERNIER METAR :
  • 271950Z 32007KT 290V360 9999 -RA FEW012 SCT023 BKN045 02/00 Q1000 R07L/69//95 R07C/29//95 R07R/29//95 R18/29//95 NOSIG

METARs EXPIRÉS :
  • 271920Z 33010KT 320V020 9999 -SNRA FEW007 SCT014 BKN025 01/01 Q0999 R07L/69//95 R07C/29//95 R07R/29//95 R18/29//95 NOSIG
  • 271850Z 35013KT 6000 -SNRA FEW004 SCT008 BKN025 01/00 Q0997 R07L/69//95 R07C/29//95 R07R/29//95 R18/29//95 NOSIG
  • 271820Z 36014KT 3500 -SN FEW004 SCT008 BKN023 01/00 Q0995 RESN R07L/29//95 R07C/29//95 R07R/29//95 R18/29//95 NOSIG
  • 271750Z 36013KT 1800 SN FEW002 BKN004 BKN008 00/00 Q0993 R07L/29//95 R07C/29//95 R07R/29//95 R18/29//95 TEMPO 3000 -SN BKN008
  • 271720Z 02013KT 1400 R07L/P2000N R07C/P2000N R07R/P2000N R18/P2000N SN FEW002 BKN004 00/00 Q0991 R07L/29//95 R07C/29//95 R07R/29//95 R18/29//95 NOSIG

TAF TAF EDDF
Valide du 27 à 18h jusqu'au 29 à 00h UTC


271700Z 2718/2824 03012KT 1200 SN BKN004
BECMG 2718/2721 33010KT 9999 NSW BKN015
TEMPO 2721/2724 4000 -SNRA BKN008
BECMG 2721/2724 27008KT
BECMG 2806/2809 SCT015
BECMG 2818/2820 BKN030
TEMPO 2821/2824 RA BKN014



MET'MAP, la Météo Aéronautique d'un coup d'oeil ! - Copyright ORBIFLY Décembre 2007 - Disclaimer

ORBIFLY MET'MAP TEAM :

Programmation & Développement : Alexandra Zaïnal
Sur une idée originale de : Baudouin d'Aumeries
Assistance à la programmation : Marc-Olivier Méhu
Soutien technique & logistique : Manuel Goepfert

Contact : metmap@orbifly.com




SOURCES & CREDITS :

   NOAA